createdAt,value
2017-10-02T01:37:03.678Z,95364.12
2017-10-02T01:39:34.267Z,95364.84
2017-10-02T01:42:03.179Z,95360.32
2017-10-02T01:44:32.579Z,95354.98
2017-10-02T01:47:01.569Z,95352.91
2017-10-02T01:49:30.571Z,95355.02
2017-10-02T01:51:59.686Z,95348.87
2017-10-02T01:54:28.697Z,95343.68
2017-10-02T01:56:57.615Z,95337.61
2017-10-02T01:59:27.506Z,95336.66
2017-10-02T02:01:56.950Z,95342.39
2017-10-02T02:04:25.791Z,95335.80
2017-10-02T02:06:55.570Z,95322.63
2017-10-02T02:09:25.226Z,95312.65
2017-10-02T02:11:56.476Z,95313.27
2017-10-02T02:14:25.694Z,95311.21
2017-10-02T02:16:54.708Z,95307.81
2017-10-02T02:19:24.074Z,95310.58
2017-10-02T02:21:53.714Z,95313.01
2017-10-02T02:24:22.696Z,95307.66
2017-10-02T02:26:52.201Z,95304.72
2017-10-02T02:29:21.018Z,95301.05
2017-10-02T02:31:50.450Z,95301.11
2017-10-02T02:34:20.963Z,95307.02
2017-10-02T02:36:50.667Z,95308.23
2017-10-02T02:39:19.524Z,95311.99
2017-10-02T02:41:50.370Z,95301.94
2017-10-02T02:44:19.938Z,95312.09
2017-10-02T02:46:49.061Z,95320.65
2017-10-02T02:49:18.426Z,95319.31
2017-10-02T02:51:49.534Z,95314.98
2017-10-02T02:54:20.328Z,95317.66
2017-10-02T02:56:49.556Z,95309.59
2017-10-02T02:59:19.668Z,95316.20
2017-10-02T03:01:49.084Z,95325.12
2017-10-02T03:04:18.021Z,95320.77
2017-10-02T03:06:49.134Z,95313.14
2017-10-02T03:09:18.710Z,95316.23
2017-10-02T03:11:47.511Z,95316.44
2017-10-02T03:14:19.053Z,95300.95
2017-10-02T03:16:47.926Z,95309.09
2017-10-02T03:19:17.110Z,95300.36
2017-10-02T03:21:46.439Z,95298.59
2017-10-02T03:24:15.307Z,95285.43
2017-10-02T03:26:45.967Z,95284.27
2017-10-02T03:29:17.120Z,95275.37
2017-10-02T03:31:47.908Z,95273.33
2017-10-02T03:34:18.086Z,95266.92
2017-10-02T03:36:47.714Z,95263.59
2017-10-02T03:39:17.757Z,95235.48
2017-10-02T03:41:46.558Z,95234.63
2017-10-02T03:44:16.231Z,95228.92
2017-10-02T03:46:45.066Z,95230.84
2017-10-02T03:49:13.929Z,95227.28
2017-10-02T03:51:43.391Z,95220.48
2017-10-02T03:54:12.234Z,95216.25
2017-10-02T03:56:41.262Z,95221.42
2017-10-02T03:59:10.869Z,95209.41
2017-10-02T04:01:40.355Z,95207.81
2017-10-02T04:04:10.671Z,95195.88
2017-10-02T04:06:39.998Z,95189.21
2017-10-02T04:09:09.602Z,95194.55
2017-10-02T04:11:39.348Z,95180.89
2017-10-02T04:14:08.184Z,95185.91
2017-10-02T04:16:37.206Z,95199.91
2017-10-02T04:19:06.142Z,95184.52
2017-10-02T04:21:35.734Z,95190.84
2017-10-02T04:24:05.310Z,95189.84
2017-10-02T04:26:34.144Z,95197.80
2017-10-02T04:29:03.691Z,95187.96
2017-10-02T04:31:33.346Z,95185.08
2017-10-02T04:34:02.336Z,95186.34
2017-10-02T04:36:31.926Z,95181.48
2017-10-02T04:39:00.739Z,95184.66
2017-10-02T04:41:30.222Z,95169.92
2017-10-02T04:43:59.139Z,95180.84
2017-10-02T04:46:30.746Z,95173.91
2017-10-02T04:48:59.542Z,95163.53
2017-10-02T04:51:29.678Z,95162.73
2017-10-02T04:53:58.677Z,95156.41
2017-10-02T04:56:28.857Z,95156.70
2017-10-02T04:58:58.565Z,95156.52
2017-10-02T05:01:29.261Z,95156.62
2017-10-02T05:03:58.183Z,95156.92
2017-10-02T05:06:30.750Z,95144.98
2017-10-02T05:09:02.945Z,95151.08
2017-10-02T05:11:33.605Z,95149.02
2017-10-02T05:14:04.263Z,95151.13
2017-10-02T05:16:33.583Z,95146.33
2017-10-02T05:19:03.505Z,95145.71
2017-10-02T05:21:32.689Z,95139.15
2017-10-02T05:24:03.070Z,95145.46
2017-10-02T05:26:31.887Z,95149.12
2017-10-02T05:29:03.578Z,95149.11
2017-10-02T05:31:33.094Z,95149.50
2017-10-02T05:34:03.247Z,95146.03
2017-10-02T05:36:32.089Z,95145.87
2017-10-02T05:39:02.093Z,95151.34
2017-10-02T05:41:31.880Z,95144.09
2017-10-02T05:44:01.615Z,95140.72
2017-10-02T05:46:31.294Z,95128.98
2017-10-02T05:49:02.240Z,95130.20
2017-10-02T05:51:32.457Z,95122.83
2017-10-02T05:54:02.264Z,95116.23
2017-10-02T05:56:35.066Z,95122.47
2017-10-02T05:59:05.939Z,95113.77
2017-10-02T06:01:36.345Z,95116.01
2017-10-02T06:04:07.732Z,95127.23
2017-10-02T06:06:38.827Z,95121.48
2017-10-02T06:09:07.690Z,95132.50
2017-10-02T06:11:37.634Z,95130.19
2017-10-02T06:14:06.938Z,95128.93
2017-10-02T06:16:39.370Z,95131.35
2017-10-02T06:19:09.902Z,95126.03
2017-10-02T06:21:39.919Z,95121.08
2017-10-02T06:24:09.543Z,95123.05
2017-10-02T06:26:44.963Z,95123.18
2017-10-02T06:29:14.585Z,95107.77
2017-10-02T06:31:44.203Z,95105.45
2017-10-02T06:34:13.475Z,95097.64
2017-10-02T06:36:43.311Z,95093.38
2017-10-02T06:39:12.409Z,95096.78
2017-10-02T06:41:46.618Z,95082.63
2017-10-02T06:44:15.638Z,95084.13
2017-10-02T06:46:45.971Z,95090.71
2017-10-02T06:49:15.566Z,95096.31
2017-10-02T06:51:46.389Z,95088.77
2017-10-02T06:54:20.111Z,95089.36
2017-10-02T06:56:49.690Z,95078.20
2017-10-02T06:59:18.595Z,95077.20
2017-10-02T07:01:47.691Z,95076.30
2017-10-02T07:04:17.443Z,95075.88
2017-10-02T07:06:47.593Z,95077.98
2017-10-02T07:09:18.208Z,95080.59
2017-10-02T07:11:47.899Z,95079.84
2017-10-02T07:14:17.570Z,95077.09
2017-10-02T07:16:48.086Z,95078.22
2017-10-02T07:19:16.906Z,95074.62
2017-10-02T07:21:45.815Z,95078.28
2017-10-02T07:24:16.883Z,95068.32
2017-10-02T07:26:48.594Z,95059.16
2017-10-02T07:29:19.993Z,95054.88
2017-10-02T07:31:48.888Z,95065.80
2017-10-02T07:34:19.947Z,95063.29
2017-10-02T07:36:55.103Z,95048.30
2017-10-02T07:39:28.315Z,95052.06
2017-10-02T07:42:00.454Z,95046.31
2017-10-02T07:44:32.504Z,95040.95
2017-10-02T07:47:01.940Z,95034.81
2017-10-02T07:49:31.416Z,95034.81
2017-10-02T07:52:01.298Z,95025.48
2017-10-02T07:54:31.102Z,95013.68
2017-10-02T07:57:01.751Z,95017.75
2017-10-02T07:59:32.430Z,95014.89
2017-10-02T08:02:03.706Z,95013.23
2017-10-02T08:04:33.306Z,95011.44
2017-10-02T08:07:06.495Z,95005.12
2017-10-02T08:09:36.729Z,95009.65
2017-10-02T08:12:05.660Z,95010.02
2017-10-02T08:14:34.652Z,95015.66
2017-10-02T08:17:03.715Z,95015.54
2017-10-02T08:19:32.947Z,95026.55
2017-10-02T08:22:02.021Z,95033.14
2017-10-02T08:24:31.611Z,95033.31
2017-10-02T08:27:00.572Z,95044.20
2017-10-02T08:29:30.443Z,95039.86
2017-10-02T08:31:59.304Z,95033.44
2017-10-02T08:34:28.519Z,95048.55
2017-10-02T08:36:59.239Z,95037.25
2017-10-02T08:39:28.753Z,95038.95
2017-10-02T08:41:58.435Z,95037.69
2017-10-02T08:44:27.569Z,95029.20
2017-10-02T08:46:57.346Z,95023.33
2017-10-02T08:49:26.353Z,95026.24
2017-10-02T08:51:55.584Z,95024.14
2017-10-02T08:54:24.430Z,95016.47
2017-10-02T08:56:53.354Z,95013.04
2017-10-02T08:59:23.330Z,95012.67
2017-10-02T09:01:52.219Z,95011.69
2017-10-02T09:04:21.417Z,95010.03
2017-10-02T09:06:54.160Z,95020.05
2017-10-02T09:09:24.845Z,95015.38
2017-10-02T09:11:53.715Z,95022.36
2017-10-02T09:14:22.663Z,95018.65
2017-10-02T09:16:54.027Z,95015.14
2017-10-02T09:19:25.075Z,95022.54
2017-10-02T09:21:56.798Z,95016.52
2017-10-02T09:24:26.410Z,95010.41
2017-10-02T09:26:56.288Z,95000.08
2017-10-02T09:29:25.963Z,95000.70
2017-10-02T09:31:55.710Z,95002.56
2017-10-02T09:34:24.652Z,95007.67
2017-10-02T09:36:57.174Z,95005.05
2017-10-02T09:39:26.646Z,94996.25
2017-10-02T09:41:57.013Z,94989.05
2017-10-02T09:44:26.969Z,94997.28
2017-10-02T09:46:56.912Z,95002.74
2017-10-02T09:49:26.292Z,94999.31
2017-10-02T09:51:55.387Z,95001.42
2017-10-02T09:54:24.515Z,95003.48
2017-10-02T09:56:54.394Z,94988.53
2017-10-02T09:59:24.139Z,95001.14
2017-10-02T10:01:54.305Z,94996.62
2017-10-02T10:04:31.807Z,95001.58
2017-10-02T10:07:03.800Z,94990.09
2017-10-02T10:09:36.375Z,94999.02
2017-10-02T10:12:07.428Z,94984.39
2017-10-02T10:14:36.683Z,94987.92
2017-10-02T10:17:06.583Z,94986.86
2017-10-02T10:20:04.103Z,94989.18
2017-10-02T10:22:36.985Z,94991.62
2017-10-02T10:25:09.206Z,94980.41
2017-10-02T10:27:43.514Z,94978.75
2017-10-02T10:30:15.234Z,94985.59
2017-10-02T10:32:52.217Z,94981.02
2017-10-02T10:35:24.201Z,94982.43
2017-10-02T10:37:56.142Z,94993.95
2017-10-02T10:40:26.802Z,94995.27
2017-10-02T10:42:58.728Z,95003.78
2017-10-02T10:45:31.276Z,95007.34
2017-10-02T10:48:02.573Z,95005.15
2017-10-02T10:50:34.932Z,95002.67
2017-10-02T10:53:08.318Z,95001.34
2017-10-02T10:55:40.939Z,94984.27
2017-10-02T10:58:12.268Z,94973.86
2017-10-02T11:00:44.310Z,94973.77
2017-10-02T11:03:16.055Z,94968.91
2017-10-02T11:06:05.899Z,94964.02
2017-10-02T11:08:38.705Z,94945.97
2017-10-02T11:11:13.924Z,94932.67
2017-10-02T11:13:48.867Z,94926.63
2017-10-02T11:16:20.388Z,94928.82
2017-10-02T11:18:51.622Z,94926.21
2017-10-02T11:21:22.965Z,94923.92
2017-10-02T11:24:02.170Z,94916.42
2017-10-02T11:26:37.168Z,94929.67
2017-10-02T11:29:09.022Z,94933.42
2017-10-02T11:31:51.838Z,94918.61
2017-10-02T11:34:24.702Z,94917.14
2017-10-02T11:36:59.052Z,94913.96
2017-10-02T11:39:30.341Z,94912.45
2017-10-02T11:42:01.876Z,94920.87
2017-10-02T11:44:36.409Z,94905.05
2017-10-02T11:47:12.490Z,94908.13
2017-10-02T11:49:44.085Z,94924.87
2017-10-02T11:52:27.712Z,94923.73
2017-10-02T11:55:03.204Z,94908.17
2017-10-02T11:57:36.054Z,94922.78
2017-10-02T12:00:11.584Z,94933.64
2017-10-02T12:02:46.005Z,94928.83
2017-10-02T12:05:19.142Z,94927.91
2017-10-02T12:07:53.870Z,94923.33
